sensor_id;sensor_type;location;lat;lon;timestamp;pressure;altitude;pressure_sealevel;temperature;humidity
52469;BME280;38381;53.688;10.776;2023-07-29T00:00:22;100395.72;;;17.27;93.43
52469;BME280;38381;53.688;10.776;2023-07-29T00:05:23;100380.97;;;17.25;94.05
52469;BME280;38381;53.688;10.776;2023-07-29T00:10:23;100388.91;;;17.20;94.29
52469;BME280;38381;53.688;10.776;2023-07-29T00:15:24;100384.94;;;17.38;93.34
52469;BME280;38381;53.688;10.776;2023-07-29T00:20:25;100384.97;;;17.37;93.36
52469;BME280;38381;53.688;10.776;2023-07-29T00:25:25;100381.03;;;17.22;95.15
52469;BME280;38381;53.688;10.776;2023-07-29T00:30:25;100388.47;;;17.37;94.56
52469;BME280;38381;53.688;10.776;2023-07-29T00:35:26;100384.88;;;17.41;94.06
52469;BME280;38381;53.688;10.776;2023-07-29T00:40:28;100369.00;;;17.46;94.18
52469;BME280;38381;53.688;10.776;2023-07-29T00:45:31;100362.63;;;17.55;93.68
52469;BME280;38381;53.688;10.776;2023-07-29T00:50:32;100355.88;;;17.47;93.99
52469;BME280;38381;53.688;10.776;2023-07-29T00:55:32;100354.06;;;17.49;92.81
52469;BME280;38381;53.688;10.776;2023-07-29T01:00:33;100346.81;;;17.58;92.89
52469;BME280;38381;53.688;10.776;2023-07-29T01:05:40;100344.25;;;17.56;91.98
52469;BME280;38381;53.688;10.776;2023-07-29T01:11:00;100331.97;;;17.57;92.49
52469;BME280;38381;53.688;10.776;2023-07-29T01:16:14;100335.53;;;17.56;92.38
52469;BME280;38381;53.688;10.776;2023-07-29T01:21:17;100332.16;;;17.50;91.88
52469;BME280;38381;53.688;10.776;2023-07-29T01:26:19;100336.63;;;17.47;91.68
52469;BME280;38381;53.688;10.776;2023-07-29T01:31:23;100334.88;;;17.47;91.67
52469;BME280;38381;53.688;10.776;2023-07-29T01:36:28;100332.34;;;17.44;92.75
52469;BME280;38381;53.688;10.776;2023-07-29T01:41:29;100333.94;;;17.50;92.43
52469;BME280;38381;53.688;10.776;2023-07-29T01:46:33;100326.91;;;17.50;92.35
52469;BME280;38381;53.688;10.776;2023-07-29T01:51:34;100324.41;;;17.47;93.01
52469;BME280;38381;53.688;10.776;2023-07-29T01:56:34;100322.66;;;17.46;92.94
52469;BME280;38381;53.688;10.776;2023-07-29T02:01:35;100307.91;;;17.44;92.71
52469;BME280;38381;53.688;10.776;2023-07-29T02:06:36;100291.50;;;17.37;93.61
52469;BME280;38381;53.688;10.776;2023-07-29T02:11:36;100293.13;;;17.41;93.12
52469;BME280;38381;53.688;10.776;2023-07-29T02:16:37;100289.53;;;17.44;93.09
52469;BME280;38381;53.688;10.776;2023-07-29T02:21:37;100286.97;;;17.42;94.06
52469;BME280;38381;53.688;10.776;2023-07-29T02:26:38;100283.38;;;17.45;95.78
52469;BME280;38381;53.688;10.776;2023-07-29T02:31:38;100286.00;;;17.45;96.15
52469;BME280;38381;53.688;10.776;2023-07-29T02:36:39;100290.13;;;17.54;96.39
52469;BME280;38381;53.688;10.776;2023-07-29T02:41:39;100281.50;;;17.50;96.60
52469;BME280;38381;53.688;10.776;2023-07-29T02:46:40;100279.94;;;17.43;98.86
52469;BME280;38381;53.688;10.776;2023-07-29T02:51:40;100272.53;;;17.57;98.08
52469;BME280;38381;53.688;10.776;2023-07-29T02:56:41;100273.97;;;17.67;97.12
52469;BME280;38381;53.688;10.776;2023-07-29T03:01:42;100273.47;;;17.55;98.24
52469;BME280;38381;53.688;10.776;2023-07-29T03:06:42;100273.03;;;17.40;100.00
52469;BME280;38381;53.688;10.776;2023-07-29T03:11:43;100274.81;;;17.40;100.00
52469;BME280;38381;53.688;10.776;2023-07-29T03:16:43;100274.44;;;17.52;100.00
52469;BME280;38381;53.688;10.776;2023-07-29T03:21:44;100289.38;;;17.78;99.32
52469;BME280;38381;53.688;10.776;2023-07-29T03:26:44;100279.69;;;17.52;100.00
52469;BME280;38381;53.688;10.776;2023-07-29T03:31:44;100282.03;;;17.32;100.00
52469;BME280;38381;53.688;10.776;2023-07-29T03:36:45;100268.91;;;17.33;100.00
52469;BME280;38381;53.688;10.776;2023-07-29T03:41:48;100267.28;;;17.57;100.00
52469;BME280;38381;53.688;10.776;2023-07-29T03:46:48;100271.50;;;17.63;100.00
52469;BME280;38381;53.688;10.776;2023-07-29T03:51:49;100272.34;;;17.63;100.00
52469;BME280;38381;53.688;10.776;2023-07-29T03:56:49;100267.75;;;17.42;100.00
52469;BME280;38381;53.688;10.776;2023-07-29T04:01:50;100269.88;;;17.59;100.00
52469;BME280;38381;53.688;10.776;2023-07-29T04:06:50;100265.47;;;17.59;100.00
52469;BME280;38381;53.688;10.776;2023-07-29T04:11:51;100259.38;;;17.59;100.00
52469;BME280;38381;53.688;10.776;2023-07-29T04:16:51;100262.91;;;17.58;100.00
52469;BME280;38381;53.688;10.776;2023-07-29T04:21:52;100257.91;;;17.78;100.00
52469;BME280;38381;53.688;10.776;2023-07-29T04:26:52;100259.22;;;17.63;100.00
52469;BME280;38381;53.688;10.776;2023-07-29T04:31:53;100252.09;;;17.68;100.00
52469;BME280;38381;53.688;10.776;2023-07-29T04:36:53;100259.22;;;17.63;100.00
52469;BME280;38381;53.688;10.776;2023-07-29T04:41:53;100248.63;;;17.68;100.00
52469;BME280;38381;53.688;10.776;2023-07-29T04:46:54;100252.09;;;17.68;100.00
52469;BME280;38381;53.688;10.776;2023-07-29T04:51:54;100242.91;;;17.83;100.00
52469;BME280;38381;53.688;10.776;2023-07-29T04:56:55;100235.00;;;17.85;100.00
52469;BME280;38381;53.688;10.776;2023-07-29T05:01:55;100237.09;;;18.00;100.00
52469;BME280;38381;53.688;10.776;2023-07-29T05:06:56;100240.09;;;18.16;100.00
52469;BME280;38381;53.688;10.776;2023-07-29T05:11:56;100250.13;;;18.30;100.00
52469;BME280;38381;53.688;10.776;2023-07-29T05:16:57;100240.28;;;18.37;100.00
52469;BME280;38381;53.688;10.776;2023-07-29T05:21:58;100241.28;;;18.33;100.00
52469;BME280;38381;53.688;10.776;2023-07-29T05:26:58;100238.38;;;18.42;100.00
52469;BME280;38381;53.688;10.776;2023-07-29T05:31:59;100237.09;;;18.27;100.00
52469;BME280;38381;53.688;10.776;2023-07-29T05:36:59;100235.75;;;18.42;100.00
52469;BME280;38381;53.688;10.776;2023-07-29T05:42:00;100239.88;;;18.22;100.00
52469;BME280;38381;53.688;10.776;2023-07-29T05:47:02;100238.88;;;18.52;100.00
52469;BME280;38381;53.688;10.776;2023-07-29T05:52:03;100234.50;;;18.52;100.00
52469;BME280;38381;53.688;10.776;2023-07-29T05:57:04;100243.63;;;18.42;100.00
52469;BME280;38381;53.688;10.776;2023-07-29T06:02:05;100244.63;;;18.63;100.00
52469;BME280;38381;53.688;10.776;2023-07-29T06:07:06;100225.22;;;18.67;100.00
52469;BME280;38381;53.688;10.776;2023-07-29T06:12:07;100222.22;;;18.78;100.00
52469;BME280;38381;53.688;10.776;2023-07-29T06:17:07;100227.34;;;19.06;98.93
52469;BME280;38381;53.688;10.776;2023-07-29T06:22:09;100227.31;;;19.07;99.44
52469;BME280;38381;53.688;10.776;2023-07-29T06:27:10;100243.28;;;19.25;97.84
52469;BME280;38381;53.688;10.776;2023-07-29T06:32:10;100237.75;;;19.33;97.26
52469;BME280;38381;53.688;10.776;2023-07-29T06:37:11;100228.88;;;19.35;97.37
52469;BME280;38381;53.688;10.776;2023-07-29T06:42:12;100226.94;;;19.17;99.29
52469;BME280;38381;53.688;10.776;2023-07-29T06:47:12;100221.50;;;19.21;98.81
52469;BME280;38381;53.688;10.776;2023-07-29T06:52:13;100221.38;;;19.70;96.25
52469;BME280;38381;53.688;10.776;2023-07-29T06:57:13;100225.91;;;19.44;97.31
52469;BME280;38381;53.688;10.776;2023-07-29T07:02:13;100225.69;;;19.73;95.95
52469;BME280;38381;53.688;10.776;2023-07-29T07:07:15;100220.72;;;19.65;96.09
52469;BME280;38381;53.688;10.776;2023-07-29T07:12:15;100226.22;;;19.81;96.39
52469;BME280;38381;53.688;10.776;2023-07-29T07:17:16;100232.22;;;19.84;94.58
52469;BME280;38381;53.688;10.776;2023-07-29T07:22:16;100233.31;;;19.79;95.25
52469;BME280;38381;53.688;10.776;2023-07-29T07:27:16;100224.94;;;19.91;95.28
52469;BME280;38381;53.688;10.776;2023-07-29T07:32:17;100222.63;;;19.83;94.97
52469;BME280;38381;53.688;10.776;2023-07-29T07:37:17;100227.31;;;19.97;94.12
52469;BME280;38381;53.688;10.776;2023-07-29T07:42:18;100223.09;;;20.36;93.13
52469;BME280;38381;53.688;10.776;2023-07-29T07:47:18;100220.38;;;20.58;90.62
52469;BME280;38381;53.688;10.776;2023-07-29T07:52:18;100224.38;;;20.87;90.38
52469;BME280;38381;53.688;10.776;2023-07-29T07:57:20;100216.59;;;21.04;89.10
52469;BME280;38381;53.688;10.776;2023-07-29T08:02:21;100209.59;;;21.03;88.58
52469;BME280;38381;53.688;10.776;2023-07-29T08:07:21;100194.53;;;21.24;88.11
52469;BME280;38381;53.688;10.776;2023-07-29T08:12:22;100186.72;;;21.23;89.11
52469;BME280;38381;53.688;10.776;2023-07-29T08:17:22;100200.09;;;20.99;87.96
52469;BME280;38381;53.688;10.776;2023-07-29T08:22:22;100196.34;;;21.43;86.53
52469;BME280;38381;53.688;10.776;2023-07-29T08:27:23;100205.41;;;21.37;86.66
52469;BME280;38381;53.688;10.776;2023-07-29T08:32:23;100199.69;;;21.46;85.00
52469;BME280;38381;53.688;10.776;2023-07-29T08:37:24;100198.09;;;21.61;84.02
52469;BME280;38381;53.688;10.776;2023-07-29T08:42:28;100199.94;;;21.78;84.38
52469;BME280;38381;53.688;10.776;2023-07-29T08:47:29;100205.28;;;21.77;84.29
52469;BME280;38381;53.688;10.776;2023-07-29T08:52:30;100203.44;;;22.14;82.55
52469;BME280;38381;53.688;10.776;2023-07-29T08:57:32;100202.69;;;22.29;82.96
52469;BME280;38381;53.688;10.776;2023-07-29T09:02:32;100191.09;;;22.14;82.17
52469;BME280;38381;53.688;10.776;2023-07-29T09:07:34;100183.03;;;22.17;80.33
52469;BME280;38381;53.688;10.776;2023-07-29T09:12:36;100194.38;;;22.37;80.97
52469;BME280;38381;53.688;10.776;2023-07-29T09:17:36;100184.13;;;22.64;80.26
52469;BME280;38381;53.688;10.776;2023-07-29T09:22:37;100184.50;;;22.05;79.91
52469;BME280;38381;53.688;10.776;2023-07-29T09:27:37;100177.75;;;22.52;79.24
52469;BME280;38381;53.688;10.776;2023-07-29T09:32:39;100170.59;;;21.84;79.78
52469;BME280;38381;53.688;10.776;2023-07-29T09:37:40;100170.44;;;22.05;79.80
52469;BME280;38381;53.688;10.776;2023-07-29T09:42:48;100166.59;;;22.29;79.29
52469;BME280;38381;53.688;10.776;2023-07-29T09:47:49;100174.66;;;22.44;78.55
52469;BME280;38381;53.688;10.776;2023-07-29T09:52:51;100180.69;;;22.46;78.48
52469;BME280;38381;53.688;10.776;2023-07-29T09:57:59;100178.53;;;22.19;79.75
52469;BME280;38381;53.688;10.776;2023-07-29T10:03:01;100176.03;;;22.16;80.71
52469;BME280;38381;53.688;10.776;2023-07-29T10:08:02;100163.75;;;22.15;82.06
52469;BME280;38381;53.688;10.776;2023-07-29T10:13:03;100168.16;;;22.15;81.86
52469;BME280;38381;53.688;10.776;2023-07-29T10:18:04;100177.97;;;22.47;80.96
52469;BME280;38381;53.688;10.776;2023-07-29T10:23:07;100184.91;;;22.50;76.49
52469;BME280;38381;53.688;10.776;2023-07-29T10:28:11;100183.38;;;22.62;75.06
52469;BME280;38381;53.688;10.776;2023-07-29T10:33:12;100182.25;;;22.83;75.12
52469;BME280;38381;53.688;10.776;2023-07-29T10:38:13;100176.22;;;22.97;73.10
52469;BME280;38381;53.688;10.776;2023-07-29T10:43:19;100177.63;;;22.54;75.35
52469;BME280;38381;53.688;10.776;2023-07-29T10:53:33;100166.56;;;22.96;71.14
52469;BME280;38381;53.688;10.776;2023-07-29T10:58:34;100166.69;;;23.26;69.07
52469;BME280;38381;53.688;10.776;2023-07-29T11:03:34;100158.22;;;23.52;70.58
52469;BME280;38381;53.688;10.776;2023-07-29T11:08:34;100157.06;;;23.72;70.24
52469;BME280;38381;53.688;10.776;2023-07-29T11:13:36;100157.22;;;23.68;69.08
52469;BME280;38381;53.688;10.776;2023-07-29T11:18:37;100148.31;;;23.55;68.79
52469;BME280;38381;53.688;10.776;2023-07-29T11:23:37;100149.47;;;23.65;68.96
52469;BME280;38381;53.688;10.776;2023-07-29T11:28:39;100142.31;;;23.52;68.75
52469;BME280;38381;53.688;10.776;2023-07-29T11:33:40;100141.22;;;23.56;67.59
52469;BME280;38381;53.688;10.776;2023-07-29T11:38:40;100150.31;;;23.66;66.93
52469;BME280;38381;53.688;10.776;2023-07-29T11:43:41;100147.69;;;23.66;66.04
52469;BME280;38381;53.688;10.776;2023-07-29T11:48:44;100147.63;;;23.52;66.43
52469;BME280;38381;53.688;10.776;2023-07-29T11:53:44;100140.91;;;23.76;64.59
52469;BME280;38381;53.688;10.776;2023-07-29T11:58:45;100149.81;;;23.75;64.94
52469;BME280;38381;53.688;10.776;2023-07-29T12:03:45;100138.25;;;23.92;65.03
52469;BME280;38381;53.688;10.776;2023-07-29T12:08:46;100145.53;;;23.73;64.55
52469;BME280;38381;53.688;10.776;2023-07-29T12:13:47;100137.66;;;23.87;64.50
52469;BME280;38381;53.688;10.776;2023-07-29T12:18:49;100141.38;;;23.99;65.50
52469;BME280;38381;53.688;10.776;2023-07-29T12:23:50;100140.91;;;23.92;64.02
52469;BME280;38381;53.688;10.776;2023-07-29T12:28:51;100142.50;;;23.95;63.76
52469;BME280;38381;53.688;10.776;2023-07-29T12:33:56;100145.63;;;24.01;63.84
52469;BME280;38381;53.688;10.776;2023-07-29T12:38:59;100145.03;;;24.12;62.93
52469;BME280;38381;53.688;10.776;2023-07-29T12:43:59;100144.91;;;24.14;62.55
52469;BME280;38381;53.688;10.776;2023-07-29T12:49:00;100146.63;;;24.15;62.64
52469;BME280;38381;53.688;10.776;2023-07-29T12:54:00;100144.34;;;24.08;62.96
52469;BME280;38381;53.688;10.776;2023-07-29T12:59:02;100140.84;;;24.08;62.59
52469;BME280;38381;53.688;10.776;2023-07-29T13:04:03;100134.16;;;23.86;63.56
52469;BME280;38381;53.688;10.776;2023-07-29T13:09:03;100126.75;;;24.22;64.07
52469;BME280;38381;53.688;10.776;2023-07-29T13:14:05;100130.56;;;24.46;62.10
52469;BME280;38381;53.688;10.776;2023-07-29T13:19:05;100135.75;;;24.48;59.68
52469;BME280;38381;53.688;10.776;2023-07-29T13:24:06;100134.25;;;24.44;58.73
52469;BME280;38381;53.688;10.776;2023-07-29T13:29:06;100124.31;;;24.47;58.70
52469;BME280;38381;53.688;10.776;2023-07-29T13:34:07;100122.47;;;24.49;58.61
52469;BME280;38381;53.688;10.776;2023-07-29T13:39:08;100121.00;;;24.73;57.70
52469;BME280;38381;53.688;10.776;2023-07-29T13:44:08;100123.19;;;24.80;56.77
52469;BME280;38381;53.688;10.776;2023-07-29T13:49:09;100123.34;;;24.92;55.27
52469;BME280;38381;53.688;10.776;2023-07-29T13:54:09;100132.38;;;24.60;55.54
52469;BME280;38381;53.688;10.776;2023-07-29T13:59:09;100134.88;;;24.63;56.47
52469;BME280;38381;53.688;10.776;2023-07-29T14:04:10;100132.59;;;24.57;55.11
52469;BME280;38381;53.688;10.776;2023-07-29T14:09:10;100136.09;;;24.72;55.35
52469;BME280;38381;53.688;10.776;2023-07-29T14:14:11;100126.22;;;24.88;54.95
52469;BME280;38381;53.688;10.776;2023-07-29T14:19:11;100122.59;;;24.89;54.20
52469;BME280;38381;53.688;10.776;2023-07-29T14:24:12;100129.19;;;24.69;52.73
52469;BME280;38381;53.688;10.776;2023-07-29T14:29:12;100132.75;;;24.68;54.22
52469;BME280;38381;53.688;10.776;2023-07-29T14:34:12;100128.22;;;24.70;54.88
52469;BME280;38381;53.688;10.776;2023-07-29T14:39:13;100137.50;;;24.92;54.15
52469;BME280;38381;53.688;10.776;2023-07-29T14:44:13;100140.69;;;24.97;54.17
52469;BME280;38381;53.688;10.776;2023-07-29T14:49:14;100139.94;;;24.95;52.52
52469;BME280;38381;53.688;10.776;2023-07-29T14:54:14;100130.16;;;24.96;52.37
52469;BME280;38381;53.688;10.776;2023-07-29T14:59:15;100130.38;;;24.93;53.76
52469;BME280;38381;53.688;10.776;2023-07-29T15:04:15;100119.63;;;25.08;54.15
52469;BME280;38381;53.688;10.776;2023-07-29T15:09:17;100127.38;;;25.12;53.89
52469;BME280;38381;53.688;10.776;2023-07-29T15:14:18;100132.81;;;24.96;52.88
52469;BME280;38381;53.688;10.776;2023-07-29T15:19:18;100129.25;;;24.82;53.76
52469;BME280;38381;53.688;10.776;2023-07-29T15:24:18;100136.97;;;25.00;54.01
52469;BME280;38381;53.688;10.776;2023-07-29T15:29:19;100131.13;;;24.95;53.76
52469;BME280;38381;53.688;10.776;2023-07-29T15:34:19;100131.06;;;24.82;54.52
52469;BME280;38381;53.688;10.776;2023-07-29T15:39:20;100129.56;;;24.63;54.33
52469;BME280;38381;53.688;10.776;2023-07-29T15:44:20;100129.63;;;24.76;54.66
52469;BME280;38381;53.688;10.776;2023-07-29T15:49:21;100141.47;;;24.85;54.77
52469;BME280;38381;53.688;10.776;2023-07-29T15:54:21;100150.63;;;24.94;54.01
52469;BME280;38381;53.688;10.776;2023-07-29T15:59:21;100153.81;;;24.72;54.98
52469;BME280;38381;53.688;10.776;2023-07-29T16:04:23;100145.09;;;24.69;55.04
52469;BME280;38381;53.688;10.776;2023-07-29T16:09:24;100148.66;;;24.83;54.76
52469;BME280;38381;53.688;10.776;2023-07-29T16:14:24;100153.13;;;24.82;54.43
52469;BME280;38381;53.688;10.776;2023-07-29T16:19:26;100158.22;;;24.57;55.68
52469;BME280;38381;53.688;10.776;2023-07-29T16:24:28;100158.34;;;24.69;55.53
52469;BME280;38381;53.688;10.776;2023-07-29T16:29:28;100165.63;;;24.80;55.40
52469;BME280;38381;53.688;10.776;2023-07-29T16:34:28;100170.66;;;24.70;54.88
52469;BME280;38381;53.688;10.776;2023-07-29T16:39:29;100182.59;;;24.78;54.74
52469;BME280;38381;53.688;10.776;2023-07-29T16:44:29;100179.72;;;24.66;54.74
52469;BME280;38381;53.688;10.776;2023-07-29T16:49:30;100180.84;;;24.48;55.44
52469;BME280;38381;53.688;10.776;2023-07-29T16:54:30;100184.44;;;24.47;55.33
52469;BME280;38381;53.688;10.776;2023-07-29T16:59:31;100171.94;;;24.35;55.12
52469;BME280;38381;53.688;10.776;2023-07-29T17:04:32;100178.97;;;24.20;55.91
52469;BME280;38381;53.688;10.776;2023-07-29T17:09:32;100181.44;;;24.08;56.63
52469;BME280;38381;53.688;10.776;2023-07-29T17:14:33;100194.44;;;23.97;56.69
52469;BME280;38381;53.688;10.776;2023-07-29T17:19:33;100193.94;;;23.75;57.21
52469;BME280;38381;53.688;10.776;2023-07-29T17:24:34;100187.75;;;23.60;56.52
52469;BME280;38381;53.688;10.776;2023-07-29T17:29:34;100189.81;;;23.39;56.83
52469;BME280;38381;53.688;10.776;2023-07-29T17:34:35;100208.84;;;23.14;57.76
52469;BME280;38381;53.688;10.776;2023-07-29T17:39:35;100223.00;;;22.79;59.62
52469;BME280;38381;53.688;10.776;2023-07-29T17:44:37;100237.03;;;22.46;63.78
52469;BME280;38381;53.688;10.776;2023-07-29T17:49:38;100240.13;;;22.20;66.18
52469;BME280;38381;53.688;10.776;2023-07-29T17:54:40;100238.44;;;21.82;67.44
52469;BME280;38381;53.688;10.776;2023-07-29T17:59:41;100241.75;;;21.68;67.38
52469;BME280;38381;53.688;10.776;2023-07-29T18:04:42;100249.53;;;21.53;67.00
52469;BME280;38381;53.688;10.776;2023-07-29T18:09:42;100246.78;;;21.56;65.00
52469;BME280;38381;53.688;10.776;2023-07-29T18:14:43;100260.13;;;21.32;65.72
52469;BME280;38381;53.688;10.776;2023-07-29T18:19:44;100256.69;;;21.11;67.86
52469;BME280;38381;53.688;10.776;2023-07-29T18:24:45;100265.34;;;21.15;67.75
52469;BME280;38381;53.688;10.776;2023-07-29T18:29:46;100272.31;;;21.16;68.67
52469;BME280;38381;53.688;10.776;2023-07-29T18:34:46;100278.00;;;21.06;69.54
52469;BME280;38381;53.688;10.776;2023-07-29T18:39:47;100298.78;;;20.94;71.18
52469;BME280;38381;53.688;10.776;2023-07-29T18:44:47;100311.00;;;20.76;72.40
52469;BME280;38381;53.688;10.776;2023-07-29T18:49:48;100323.25;;;20.55;73.40
52469;BME280;38381;53.688;10.776;2023-07-29T18:54:48;100331.25;;;20.53;74.38
52469;BME280;38381;53.688;10.776;2023-07-29T18:59:49;100338.19;;;20.54;74.39
52469;BME280;38381;53.688;10.776;2023-07-29T19:04:50;100341.59;;;20.36;75.19
52469;BME280;38381;53.688;10.776;2023-07-29T19:09:51;100336.34;;;20.36;75.17
52469;BME280;38381;53.688;10.776;2023-07-29T19:14:58;100347.38;;;20.23;76.04
52469;BME280;38381;53.688;10.776;2023-07-29T19:19:58;100338.81;;;20.18;76.31
52469;BME280;38381;53.688;10.776;2023-07-29T19:24:58;100349.13;;;20.01;76.85
52469;BME280;38381;53.688;10.776;2023-07-29T19:29:59;100334.09;;;20.04;76.76
52469;BME280;38381;53.688;10.776;2023-07-29T19:35:00;100338.84;;;19.95;77.24
52469;BME280;38381;53.688;10.776;2023-07-29T19:40:00;100338.03;;;19.93;77.66
52469;BME280;38381;53.688;10.776;2023-07-29T19:45:00;100340.69;;;19.93;77.73
52469;BME280;38381;53.688;10.776;2023-07-29T19:50:01;100335.22;;;19.75;78.52
52469;BME280;38381;53.688;10.776;2023-07-29T19:55:02;100338.00;;;19.70;78.44
52469;BME280;38381;53.688;10.776;2023-07-29T20:00:03;100340.41;;;19.77;78.55
52469;BME280;38381;53.688;10.776;2023-07-29T20:05:03;100353.81;;;19.70;79.25
52469;BME280;38381;53.688;10.776;2023-07-29T20:10:05;100369.16;;;19.58;79.91
52469;BME280;38381;53.688;10.776;2023-07-29T20:15:06;100361.28;;;19.58;79.84
52469;BME280;38381;53.688;10.776;2023-07-29T20:20:07;100366.88;;;19.48;80.83
52469;BME280;38381;53.688;10.776;2023-07-29T20:25:08;100366.56;;;19.33;81.59
52469;BME280;38381;53.688;10.776;2023-07-29T20:30:08;100357.19;;;19.25;81.91
52469;BME280;38381;53.688;10.776;2023-07-29T20:35:09;100353.16;;;19.15;82.30
52469;BME280;38381;53.688;10.776;2023-07-29T20:40:10;100357.03;;;19.05;82.43
52469;BME280;38381;53.688;10.776;2023-07-29T20:45:11;100353.38;;;19.09;82.39
52469;BME280;38381;53.688;10.776;2023-07-29T20:50:11;100354.16;;;18.87;83.14
52469;BME280;38381;53.688;10.776;2023-07-29T20:55:12;100354.25;;;18.84;83.20
52469;BME280;38381;53.688;10.776;2023-07-29T21:00:12;100361.38;;;18.81;83.33
52469;BME280;38381;53.688;10.776;2023-07-29T21:05:13;100365.75;;;18.80;83.32
52469;BME280;38381;53.688;10.776;2023-07-29T21:10:13;100373.97;;;18.69;83.76
52469;BME280;38381;53.688;10.776;2023-07-29T21:15:14;100368.63;;;18.73;83.44
52469;BME280;38381;53.688;10.776;2023-07-29T21:20:14;100359.44;;;18.59;84.09
52469;BME280;38381;53.688;10.776;2023-07-29T21:25:15;100359.44;;;18.59;84.00
52469;BME280;38381;53.688;10.776;2023-07-29T21:30:15;100365.00;;;18.50;84.49
52469;BME280;38381;53.688;10.776;2023-07-29T21:35:16;100378.25;;;18.45;84.04
52469;BME280;38381;53.688;10.776;2023-07-29T21:40:16;100382.97;;;18.36;84.57
52469;BME280;38381;53.688;10.776;2023-07-29T21:45:17;100383.34;;;17.95;86.96
52469;BME280;38381;53.688;10.776;2023-07-29T21:50:17;100376.13;;;17.72;87.81
52469;BME280;38381;53.688;10.776;2023-07-29T21:55:20;100380.16;;;17.53;88.05
52469;BME280;38381;53.688;10.776;2023-07-29T22:00:21;100381.34;;;17.42;88.78
52469;BME280;38381;53.688;10.776;2023-07-29T22:05:21;100379.91;;;17.30;89.43
52469;BME280;38381;53.688;10.776;2023-07-29T22:10:22;100362.72;;;17.20;90.19
52469;BME280;38381;53.688;10.776;2023-07-29T22:15:22;100371.66;;;17.13;89.70
52469;BME280;38381;53.688;10.776;2023-07-29T22:20:22;100385.91;;;17.03;90.04
52469;BME280;38381;53.688;10.776;2023-07-29T22:25:23;100387.88;;;16.95;91.03
52469;BME280;38381;53.688;10.776;2023-07-29T22:30:23;100394.09;;;16.89;91.69
52469;BME280;38381;53.688;10.776;2023-07-29T22:35:24;100390.44;;;16.96;90.42
52469;BME280;38381;53.688;10.776;2023-07-29T22:40:24;100401.94;;;16.91;90.51
52469;BME280;38381;53.688;10.776;2023-07-29T22:45:25;100401.84;;;16.58;93.51
52469;BME280;38381;53.688;10.776;2023-07-29T22:50:25;100397.16;;;16.70;92.93
52469;BME280;38381;53.688;10.776;2023-07-29T22:55:25;100398.00;;;16.71;92.24
52469;BME280;38381;53.688;10.776;2023-07-29T23:00:26;100393.50;;;16.42;93.93
52469;BME280;38381;53.688;10.776;2023-07-29T23:05:26;100396.47;;;16.62;92.34
52469;BME280;38381;53.688;10.776;2023-07-29T23:10:27;100385.59;;;16.43;93.55
52469;BME280;38381;53.688;10.776;2023-07-29T23:15:29;100387.66;;;16.31;94.09
52469;BME280;38381;53.688;10.776;2023-07-29T23:20:34;100398.88;;;16.36;92.83
52469;BME280;38381;53.688;10.776;2023-07-29T23:25:34;100409.28;;;16.39;92.92
52469;BME280;38381;53.688;10.776;2023-07-29T23:30:35;100406.06;;;16.26;93.89
52469;BME280;38381;53.688;10.776;2023-07-29T23:35:37;100402.81;;;16.16;95.00
52469;BME280;38381;53.688;10.776;2023-07-29T23:40:37;100396.69;;;16.16;95.84
52469;BME280;38381;53.688;10.776;2023-07-29T23:45:37;100386.56;;;16.02;97.97
52469;BME280;38381;53.688;10.776;2023-07-29T23:50:38;100384.72;;;16.05;98.56
52469;BME280;38381;53.688;10.776;2023-07-29T23:55:38;100377.06;;;15.98;99.43
